createdAt,value
2022-12-31T00:02:28.320Z,99104.14
2022-12-31T00:06:31.961Z,99111.94
2022-12-31T00:10:35.625Z,99114.83
2022-12-31T00:14:25.054Z,99118.23
2022-12-31T00:18:30.832Z,99100.59
2022-12-31T00:22:34.461Z,99114.02
2022-12-31T00:26:31.213Z,99112.46
2022-12-31T00:30:34.950Z,99124.63
2022-12-31T00:34:38.639Z,99129.11
2022-12-31T00:38:41.346Z,99134.26
2022-12-31T00:42:45.023Z,99133.89
2022-12-31T00:50:44.918Z,99129.08
2022-12-31T00:54:48.559Z,99139.77
2022-12-31T00:58:52.859Z,99146.11
2022-12-31T01:02:49.819Z,99151.09
2022-12-31T01:06:53.820Z,99163.22
2022-12-31T01:10:42.250Z,99167.58
2022-12-31T01:14:34.263Z,99168.87
2022-12-31T01:18:37.893Z,99175.45
2022-12-31T01:22:23.334Z,99180.16
2022-12-31T01:26:27.319Z,99189.10
2022-12-31T01:30:29.930Z,99181.05
2022-12-31T01:34:38.440Z,99177.46
2022-12-31T01:38:42.046Z,99185.62
2022-12-31T01:43:13.050Z,99181.77
2022-12-31T01:47:22.603Z,99180.73
2022-12-31T01:51:19.932Z,99193.67
2022-12-31T01:55:24.185Z,99199.33
2022-12-31T01:59:28.858Z,99200.24
2022-12-31T02:03:24.703Z,99192.67
2022-12-31T02:07:31.333Z,99198.61
2022-12-31T02:11:34.936Z,99208.40
2022-12-31T02:15:38.670Z,99204.81
2022-12-31T02:19:50.338Z,99217.27
2022-12-31T02:24:04.643Z,99196.24
2022-12-31T02:28:23.233Z,99214.66
2022-12-31T02:32:26.108Z,99188.84
2022-12-31T02:36:25.101Z,99199.45
2022-12-31T02:40:29.094Z,99190.99
2022-12-31T02:44:14.485Z,99221.76
2022-12-31T02:48:27.262Z,99214.86
2022-12-31T02:52:49.349Z,99210.77
2022-12-31T02:57:05.272Z,99211.74
2022-12-31T03:01:00.550Z,99205.95
2022-12-31T03:04:53.880Z,99207.33
2022-12-31T03:09:00.771Z,99205.95
2022-12-31T03:13:11.914Z,99201.23
2022-12-31T03:17:00.858Z,99207.49
2022-12-31T03:21:09.150Z,99207.91
2022-12-31T03:25:03.775Z,99212.77
2022-12-31T03:29:02.888Z,99216.17
2022-12-31T03:32:59.492Z,99215.41
2022-12-31T03:37:07.102Z,99220.45
2022-12-31T03:41:10.622Z,99213.66
2022-12-31T03:45:16.105Z,99209.32
2022-12-31T03:49:18.774Z,99206.95
2022-12-31T03:53:11.505Z,99208.92
2022-12-31T03:57:01.690Z,99208.31
2022-12-31T04:01:05.534Z,99209.14
2022-12-31T04:05:09.676Z,99197.91
2022-12-31T04:08:56.080Z,99200.85
2022-12-31T04:13:00.756Z,99199.40
2022-12-31T04:17:15.200Z,99198.40
2022-12-31T04:21:15.917Z,99198.86
2022-12-31T04:25:17.876Z,99213.48
2022-12-31T04:29:12.284Z,99225.70
2022-12-31T04:33:00.407Z,99221.27
2022-12-31T04:37:05.101Z,99214.84
2022-12-31T04:41:07.660Z,99215.98
2022-12-31T04:45:20.246Z,99207.06
2022-12-31T04:49:24.604Z,99203.29
2022-12-31T04:53:29.636Z,99197.49
2022-12-31T04:57:34.422Z,99192.20
2022-12-31T05:01:40.238Z,99189.36
2022-12-31T05:05:43.179Z,99192.70
2022-12-31T05:09:46.858Z,99193.71
2022-12-31T05:13:50.610Z,99187.61
2022-12-31T05:17:54.339Z,99187.64
2022-12-31T05:22:02.211Z,99185.20
2022-12-31T05:26:05.369Z,99187.64
2022-12-31T05:30:05.178Z,99195.95
2022-12-31T05:34:07.500Z,99197.92
2022-12-31T05:38:09.680Z,99200.54
2022-12-31T05:42:04.246Z,99200.50
2022-12-31T05:46:08.047Z,99196.30
2022-12-31T05:50:05.291Z,99197.74
2022-12-31T05:54:02.891Z,99197.02
2022-12-31T05:58:06.972Z,99193.69
2022-12-31T06:02:04.169Z,99194.98
2022-12-31T06:06:07.876Z,99193.95
2022-12-31T06:10:01.796Z,99199.36
2022-12-31T06:14:05.574Z,99190.80
2022-12-31T06:17:59.585Z,99195.16
2022-12-31T06:22:02.500Z,99188.36
2022-12-31T06:26:54.235Z,99193.56
2022-12-31T06:30:20.754Z,99192.11
2022-12-31T06:34:29.925Z,99197.48
2022-12-31T06:38:34.115Z,99195.58
2022-12-31T06:42:29.173Z,99200.52
2022-12-31T06:46:32.915Z,99210.83
2022-12-31T06:50:37.322Z,99216.36
2022-12-31T06:54:33.680Z,99220.23
2022-12-31T06:58:37.533Z,99216.34
2022-12-31T07:02:44.576Z,99201.59
2022-12-31T07:06:44.265Z,99213.30
2022-12-31T07:10:58.728Z,99204.84
2022-12-31T07:15:06.939Z,99179.24
2022-12-31T07:19:19.306Z,99183.14
2022-12-31T07:23:23.636Z,99196.10
2022-12-31T07:27:26.629Z,99193.36
2022-12-31T07:31:32.865Z,99188.67
2022-12-31T07:35:38.873Z,99195.52
2022-12-31T07:39:48.255Z,99192.76
2022-12-31T07:44:04.791Z,99195.70
2022-12-31T07:48:13.378Z,99188.96
2022-12-31T07:52:20.944Z,99183.30
2022-12-31T07:56:17.993Z,99183.73
2022-12-31T08:00:30.614Z,99177.25
2022-12-31T08:04:44.227Z,99170.76
2022-12-31T08:08:59.804Z,99174.74
2022-12-31T08:13:03.938Z,99179.30
2022-12-31T08:17:07.835Z,99165.78
2022-12-31T08:21:14.364Z,99176.96
2022-12-31T08:25:28.482Z,99181.20
2022-12-31T08:29:30.470Z,99178.89
2022-12-31T08:33:43.275Z,99183.80
2022-12-31T08:42:36.588Z,99182.72
2022-12-31T08:46:40.587Z,99188.61
2022-12-31T08:50:37.725Z,99193.59
2022-12-31T08:54:41.528Z,99185.48
2022-12-31T08:58:52.896Z,99186.41
2022-12-31T09:03:14.764Z,99182.67
2022-12-31T09:07:17.950Z,99204.36
2022-12-31T09:11:36.788Z,99197.86
2022-12-31T09:15:43.310Z,99200.70
2022-12-31T09:19:46.958Z,99186.27
2022-12-31T09:23:42.848Z,99178.64
2022-12-31T09:27:52.172Z,99165.88
2022-12-31T09:31:58.488Z,99181.89
2022-12-31T09:36:30.290Z,99183.89
2022-12-31T09:40:42.321Z,99177.40
2022-12-31T09:45:04.497Z,99194.94
2022-12-31T09:49:06.772Z,99194.08
2022-12-31T09:53:22.591Z,99182.06
2022-12-31T09:57:44.964Z,99180.80
2022-12-31T10:01:51.499Z,99191.04
2022-12-31T10:06:26.850Z,99183.09
2022-12-31T10:10:55.432Z,99190.13
2022-12-31T10:14:57.484Z,99195.65
2022-12-31T10:19:10.514Z,99199.16
2022-12-31T10:23:25.847Z,99204.20
2022-12-31T10:27:39.733Z,99197.36
2022-12-31T10:31:46.129Z,99187.48
2022-12-31T10:35:52.878Z,99189.54
2022-12-31T10:40:05.936Z,99191.45
2022-12-31T10:44:27.676Z,99190.88
2022-12-31T10:48:56.415Z,99193.41
2022-12-31T10:53:12.910Z,99185.64
2022-12-31T10:57:24.414Z,99182.13
2022-12-31T11:01:34.309Z,99181.40
2022-12-31T11:06:05.718Z,99182.01
2022-12-31T11:10:35.882Z,99179.94
2022-12-31T11:15:17.334Z,99180.19
2022-12-31T11:19:38.776Z,99171.48
2022-12-31T11:24:07.461Z,99166.03
2022-12-31T11:28:13.059Z,99171.35
2022-12-31T11:32:35.511Z,99172.13
2022-12-31T11:37:01.115Z,99167.70
2022-12-31T11:41:12.813Z,99166.28
2022-12-31T11:45:25.192Z,99166.78
2022-12-31T11:49:31.458Z,99169.65
2022-12-31T11:53:27.794Z,99177.67
2022-12-31T11:57:31.459Z,99169.39
2022-12-31T12:01:41.472Z,99158.98
2022-12-31T12:05:46.133Z,99160.69
2022-12-31T12:09:55.953Z,99163.59
2022-12-31T12:14:06.069Z,99162.23
2022-12-31T12:18:09.735Z,99163.25
2022-12-31T12:22:16.426Z,99158.93
2022-12-31T12:26:20.153Z,99154.16
2022-12-31T12:30:27.473Z,99158.83
2022-12-31T12:34:31.175Z,99163.22
2022-12-31T12:39:35.124Z,99161.42
2022-12-31T13:44:49.578Z,99202.52
2022-12-31T13:48:55.830Z,99216.96
2022-12-31T13:53:05.465Z,99218.56
2022-12-31T13:57:09.312Z,99213.80
2022-12-31T14:01:33.857Z,99225.41
2022-12-31T14:05:38.160Z,99222.05
2022-12-31T14:09:42.540Z,99225.30
2022-12-31T14:13:56.997Z,99240.29
2022-12-31T14:18:03.426Z,99237.29
2022-12-31T14:22:09.897Z,99243.02
2022-12-31T14:26:19.496Z,99237.05
2022-12-31T14:30:38.313Z,99244.41
2022-12-31T14:34:43.473Z,99238.10
2022-12-31T14:38:56.530Z,99256.53
2022-12-31T14:43:09.600Z,99282.38
2022-12-31T14:47:55.192Z,99282.92
2022-12-31T14:51:59.100Z,99283.72
2022-12-31T14:56:32.496Z,99281.95
2022-12-31T15:00:36.380Z,99293.02
2022-12-31T15:04:40.115Z,99318.54
2022-12-31T15:09:07.628Z,99309.67
2022-12-31T15:13:20.746Z,99314.75
2022-12-31T15:17:50.579Z,99328.32
2022-12-31T15:21:52.375Z,99334.48
2022-12-31T15:26:04.985Z,99330.35
2022-12-31T15:30:14.863Z,99339.73
2022-12-31T15:34:34.568Z,99343.42
2022-12-31T15:38:41.836Z,99347.89
2022-12-31T15:42:49.818Z,99347.73
2022-12-31T15:46:59.891Z,99348.79
2022-12-31T15:51:03.650Z,99350.10
2022-12-31T15:55:07.400Z,99364.61
2022-12-31T15:59:11.587Z,99349.98
2022-12-31T16:03:24.399Z,99369.48
2022-12-31T16:07:28.611Z,99378.77
2022-12-31T16:11:32.382Z,99370.54
2022-12-31T16:15:36.083Z,99367.46
2022-12-31T16:19:39.771Z,99362.86
2022-12-31T16:23:44.660Z,99374.55
2022-12-31T16:27:55.359Z,99378.42
2022-12-31T16:31:59.032Z,99376.58
2022-12-31T16:36:05.447Z,99388.66
2022-12-31T16:40:18.132Z,99388.94
2022-12-31T16:44:37.227Z,99389.28
2022-12-31T16:48:58.314Z,99375.84
2022-12-31T16:53:03.120Z,99382.62
2022-12-31T16:57:06.960Z,99378.23
2022-12-31T17:01:16.919Z,99381.14
2022-12-31T17:05:21.286Z,99393.01
2022-12-31T17:09:30.619Z,99392.21
2022-12-31T17:13:37.001Z,99392.00
2022-12-31T17:17:55.097Z,99389.36
2022-12-31T17:21:58.942Z,99395.29
2022-12-31T17:26:08.560Z,99384.70
2022-12-31T17:30:14.937Z,99381.85
2022-12-31T17:34:21.480Z,99388.86
2022-12-31T17:38:51.187Z,99391.64
2022-12-31T17:42:52.297Z,99393.46
2022-12-31T17:46:56.372Z,99404.67
2022-12-31T17:51:00.250Z,99390.39
2022-12-31T17:55:03.980Z,99399.61
2022-12-31T17:59:13.335Z,99400.60
2022-12-31T18:03:16.977Z,99409.34
2022-12-31T18:07:20.829Z,99403.92
2022-12-31T18:11:24.668Z,99408.65
2022-12-31T18:15:28.745Z,99403.92
2022-12-31T18:20:03.496Z,99399.09
2022-12-31T18:28:01.600Z,99382.28
2022-12-31T18:32:02.464Z,99388.08
2022-12-31T18:36:09.137Z,99389.77
2022-12-31T18:40:13.410Z,99395.88
2022-12-31T18:44:17.288Z,99399.63
2022-12-31T18:48:21.418Z,99404.54
2022-12-31T18:52:25.075Z,99404.42
2022-12-31T18:56:34.686Z,99410.39
2022-12-31T19:00:38.324Z,99410.09
2022-12-31T19:04:42.608Z,99406.92
2022-12-31T19:08:46.248Z,99408.58
2022-12-31T19:12:53.095Z,99412.13
2022-12-31T19:16:57.252Z,99415.31
2022-12-31T19:21:01.377Z,99414.45
2022-12-31T19:25:05.568Z,99424.56
2022-12-31T19:29:12.057Z,99431.26
2022-12-31T19:33:15.805Z,99434.81
2022-12-31T19:37:19.548Z,99442.69
2022-12-31T19:41:23.196Z,99443.41
2022-12-31T19:45:20.274Z,99441.90
2022-12-31T19:49:23.952Z,99431.17
2022-12-31T19:53:36.508Z,99432.13
2022-12-31T19:57:40.727Z,99426.67
2022-12-31T20:01:44.992Z,99418.64
2022-12-31T20:05:48.852Z,99431.55
2022-12-31T20:09:52.559Z,99429.05
2022-12-31T20:13:56.353Z,99431.56
2022-12-31T20:18:00.108Z,99430.25
2022-12-31T20:22:03.901Z,99431.55
2022-12-31T20:26:07.589Z,99439.61
2022-12-31T20:30:14.914Z,99433.49
2022-12-31T20:34:19.318Z,99437.59
2022-12-31T20:38:12.942Z,99435.16
2022-12-31T20:42:16.595Z,99442.88
2022-12-31T20:46:20.324Z,99440.09
2022-12-31T20:50:23.952Z,99444.77
2022-12-31T20:54:28.114Z,99440.38
2022-12-31T20:58:32.771Z,99434.40
2022-12-31T21:02:42.702Z,99428.32
2022-12-31T21:06:49.595Z,99424.55
2022-12-31T21:10:53.232Z,99418.13
2022-12-31T21:15:02.916Z,99414.90
2022-12-31T21:19:23.414Z,99418.21
2022-12-31T21:23:25.003Z,99423.57
2022-12-31T21:27:29.060Z,99421.97
2022-12-31T21:31:32.799Z,99416.77
2022-12-31T21:35:48.688Z,99416.52
2022-12-31T21:39:56.885Z,99420.36
2022-12-31T21:44:01.070Z,99421.55
2022-12-31T21:48:03.646Z,99417.23
2022-12-31T21:52:06.195Z,99416.46
2022-12-31T21:56:08.812Z,99415.35
2022-12-31T22:00:40.526Z,99420.19
2022-12-31T22:05:01.291Z,99419.61
2022-12-31T22:09:01.929Z,99418.81
2022-12-31T22:13:13.473Z,99423.05
2022-12-31T22:17:19.832Z,99414.46
2022-12-31T22:21:25.817Z,99412.92
2022-12-31T22:25:29.936Z,99412.22
2022-12-31T22:29:33.919Z,99411.86
2022-12-31T22:33:37.679Z,99404.15
2022-12-31T22:37:57.136Z,99393.57
2022-12-31T22:42:05.744Z,99400.70
2022-12-31T22:46:02.691Z,99398.52
2022-12-31T22:50:06.441Z,99399.63
2022-12-31T22:54:11.019Z,99409.58
2022-12-31T22:58:06.485Z,99418.84
2022-12-31T23:02:10.800Z,99413.94
2022-12-31T23:06:23.543Z,99416.46
2022-12-31T23:10:25.688Z,99436.55
2022-12-31T23:14:27.919Z,99438.31
2022-12-31T23:18:30.249Z,99438.50
2022-12-31T23:22:31.189Z,99438.70
2022-12-31T23:26:34.802Z,99456.77
2022-12-31T23:30:44.790Z,99454.59
2022-12-31T23:39:15.746Z,99449.84
2022-12-31T23:43:19.776Z,99455.89
2022-12-31T23:47:23.440Z,99445.98
2022-12-31T23:51:27.568Z,99454.40
2022-12-31T23:55:31.354Z,99455.01
2022-12-31T23:59:35.433Z,99453.40
